Terminal Aerodrome Forecast
Issued by NWS

Home | Current Version | Previous Version | Text Only | Print | Product List | Glossary On
Versions: 1 2 3 4 5 6 7 8 9 10 11 12
299
FTUS45 KRIW 241720
TAFCPR
TAF
KCPR 241720Z 2418/2518 23012G19KT P6SM FEW070 SCT200
     FM242200 25014G22KT P6SM VCTS BKN050CB
     FM250300 23016G24KT P6SM VCSH SCT050 BKN080
     FM251500 01015G25KT 3SM -SNRA SCT009 BKN013=

USA.gov is the U.S. government's official web portal to all federal, state and local government web resources and services.